SWA4052 KLGA-KMDW
Flight info
| Callsign | SWA4052 |
|---|---|
| Flight time | 1h 58m |
| Altitude | 36000 |
| Route | NEWEL J60 DJB ASHEN PANGG7 |
| Aircraft | B738/M-SDE2E3FGHIRWXY/LB1 |
Departure
| Time | 2026-05-08 00:30 |
|---|---|
| Airport | LaGuardia Airport (KLGA) |
Arrival
| Time | 2026-05-08 02:28 |
|---|---|
| Airport | Chicago Midway International Airport (KMDW) |
| Time | Latitude | Longitude | Altitude | Speed | Heading |
|---|---|---|---|---|---|
| 2026-05-07 23:50 | 40.76839 | -73.86130 | 8 ft | 0 kts | 37° |
| 2026-05-08 00:15 | 40.76827 | -73.86142 | 8 ft | 2 kts | 37° |
| 2026-05-08 00:15 | 40.76815 | -73.86155 | 8 ft | 2 kts | 37° |
| 2026-05-08 00:15 | 40.76802 | -73.86168 | 8 ft | 2 kts | 47° |
| 2026-05-08 00:16 | 40.76796 | -73.86185 | 8 ft | 1 kts | 101° |
| 2026-05-08 00:16 | 40.76798 | -73.86192 | 8 ft | 0 kts | 110° |
| 2026-05-08 00:18 | 40.76793 | -73.86177 | 8 ft | 7 kts | 115° |
| 2026-05-08 00:18 | 40.76771 | -73.86105 | 8 ft | 7 kts | 104° |
| 2026-05-08 00:19 | 40.76762 | -73.86055 | 8 ft | 8 kts | 104° |
| 2026-05-08 00:19 | 40.76800 | -73.85982 | 8 ft | 13 kts | 33° |
| 2026-05-08 00:19 | 40.76871 | -73.85932 | 8 ft | 8 kts | 11° |
| 2026-05-08 00:19 | 40.76896 | -73.85925 | 8 ft | 0 kts | 14° |
| 2026-05-08 00:20 | 40.76917 | -73.85924 | 8 ft | 9 kts | 351° |
| 2026-05-08 00:20 | 40.76968 | -73.85920 | 8 ft | 7 kts | 9° |
| 2026-05-08 00:21 | 40.77048 | -73.85904 | 8 ft | 15 kts | 7° |
| 2026-05-08 00:21 | 40.77106 | -73.85866 | 8 ft | 8 kts | 37° |
| 2026-05-08 00:21 | 40.77141 | -73.85858 | 8 ft | 2 kts | 340° |
| 2026-05-08 00:21 | 40.77178 | -73.85902 | 8 ft | 16 kts | 303° |
| 2026-05-08 00:22 | 40.77240 | -73.86047 | 8 ft | 15 kts | 306° |
| 2026-05-08 00:22 | 40.77284 | -73.86120 | 8 ft | 5 kts | 315° |
| 2026-05-08 00:22 | 40.77292 | -73.86131 | 8 ft | 2 kts | 307° |
| 2026-05-08 00:22 | 40.77334 | -73.86219 | 8 ft | 19 kts | 302° |
| 2026-05-08 00:23 | 40.77405 | -73.86369 | 8 ft | 20 kts | 302° |
| 2026-05-08 00:23 | 40.77473 | -73.86521 | 8 ft | 20 kts | 299° |
| 2026-05-08 00:23 | 40.77552 | -73.86676 | 8 ft | 20 kts | 304° |
| 2026-05-08 00:23 | 40.77625 | -73.86830 | 8 ft | 20 kts | 303° |
| 2026-05-08 00:24 | 40.77702 | -73.86988 | 8 ft | 20 kts | 303° |
| 2026-05-08 00:24 | 40.77780 | -73.87145 | 8 ft | 19 kts | 303° |
| 2026-05-08 00:24 | 40.77817 | -73.87221 | 8 ft | 2 kts | 297° |
| 2026-05-08 00:24 | 40.77824 | -73.87263 | 8 ft | 7 kts | 280° |
| 2026-05-08 00:25 | 40.77830 | -73.87351 | 8 ft | 12 kts | 267° |
| 2026-05-08 00:25 | 40.77797 | -73.87497 | 8 ft | 18 kts | 236° |
| 2026-05-08 00:25 | 40.77721 | -73.87601 | 8 ft | 18 kts | 214° |
| 2026-05-08 00:25 | 40.77604 | -73.87697 | 8 ft | 20 kts | 213° |
| 2026-05-08 00:26 | 40.77499 | -73.87781 | 8 ft | 16 kts | 211° |
| 2026-05-08 00:26 | 40.77394 | -73.87866 | 8 ft | 20 kts | 212° |
| 2026-05-08 00:26 | 40.77274 | -73.87964 | 8 ft | 20 kts | 212° |
| 2026-05-08 00:26 | 40.77157 | -73.88062 | 8 ft | 20 kts | 212° |
| 2026-05-08 00:27 | 40.77063 | -73.88142 | 8 ft | 11 kts | 213° |
| 2026-05-08 00:27 | 40.77013 | -73.88191 | 8 ft | 11 kts | 223° |
| 2026-05-08 00:27 | 40.76988 | -73.88222 | 8 ft | 0 kts | 221° |
| 2026-05-08 00:28 | 40.76971 | -73.88242 | 8 ft | 6 kts | 224° |
| 2026-05-08 00:28 | 40.76968 | -73.88247 | 8 ft | 0 kts | 224° |
| 2026-05-08 00:28 | 40.76940 | -73.88287 | 8 ft | 16 kts | 236° |
| 2026-05-08 00:29 | 40.76931 | -73.88373 | 8 ft | 3 kts | 338° |
| 2026-05-08 00:29 | 40.76951 | -73.88372 | 8 ft | 1 kts | 14° |
| 2026-05-08 00:29 | 40.77138 | -73.88227 | 8 ft | 69 kts | 32° |
| 2026-05-08 00:29 | 40.77746 | -73.87724 | 8 ft | 137 kts | 32° |
| 2026-05-08 00:30 | 40.78668 | -73.86911 | 395 ft | 167 kts | 36° |
| 2026-05-08 00:30 | 40.79720 | -73.86285 | 1309 ft | 170 kts | 8° |
| 2026-05-08 00:30 | 40.80935 | -73.86504 | 1980 ft | 188 kts | 341° |
| 2026-05-08 00:30 | 40.82271 | -73.87051 | 2355 ft | 215 kts | 345° |
| 2026-05-08 00:31 | 40.83812 | -73.87538 | 2751 ft | 237 kts | 346° |
| 2026-05-08 00:31 | 40.85410 | -73.88025 | 3523 ft | 239 kts | 346° |
| 2026-05-08 00:31 | 40.87044 | -73.88507 | 4380 ft | 240 kts | 346° |
| 2026-05-08 00:31 | 40.88676 | -73.88974 | 5285 ft | 241 kts | 346° |
| 2026-05-08 00:32 | 40.90304 | -73.89440 | 6255 ft | 239 kts | 344° |
| 2026-05-08 00:32 | 40.91811 | -73.90411 | 6901 ft | 249 kts | 315° |
| 2026-05-08 00:32 | 40.92672 | -73.92414 | 7529 ft | 261 kts | 282° |
| 2026-05-08 00:32 | 40.92703 | -73.94838 | 8320 ft | 268 kts | 266° |
| 2026-05-08 00:33 | 40.92524 | -73.97308 | 9168 ft | 272 kts | 266° |
| 2026-05-08 00:33 | 40.92348 | -73.99776 | 10189 ft | 266 kts | 266° |
| 2026-05-08 00:33 | 40.92185 | -74.02189 | 11209 ft | 263 kts | 266° |
| 2026-05-08 00:33 | 40.92037 | -74.04636 | 11870 ft | 273 kts | 267° |
| 2026-05-08 00:34 | 40.91979 | -74.07220 | 12319 ft | 289 kts | 270° |
| 2026-05-08 00:34 | 40.91997 | -74.09968 | 12657 ft | 307 kts | 270° |
| 2026-05-08 00:34 | 40.92036 | -74.12843 | 13220 ft | 316 kts | 270° |
| 2026-05-08 00:34 | 40.92070 | -74.15758 | 13990 ft | 319 kts | 270° |
| 2026-05-08 00:35 | 40.92086 | -74.17707 | 14504 ft | 320 kts | 269° |
| 2026-05-08 00:35 | 40.92114 | -74.21627 | 15526 ft | 322 kts | 269° |
| 2026-05-08 00:35 | 40.92129 | -74.24599 | 16271 ft | 324 kts | 268° |
| 2026-05-08 00:35 | 40.92141 | -74.27584 | 16988 ft | 326 kts | 268° |
| 2026-05-08 00:36 | 40.92147 | -74.29614 | 17461 ft | 328 kts | 267° |
| 2026-05-08 00:36 | 40.92156 | -74.32637 | 18143 ft | 329 kts | 267° |
| 2026-05-08 00:36 | 40.92162 | -74.35636 | 18778 ft | 332 kts | 266° |
| 2026-05-08 00:36 | 40.92167 | -74.38700 | 19408 ft | 335 kts | 266° |
| 2026-05-08 00:37 | 40.92171 | -74.41799 | 20034 ft | 337 kts | 266° |
| 2026-05-08 00:37 | 40.92174 | -74.44903 | 20641 ft | 339 kts | 266° |
| 2026-05-08 00:37 | 40.92177 | -74.48037 | 21201 ft | 342 kts | 266° |
| 2026-05-08 00:38 | 40.92215 | -74.54388 | 22305 ft | 347 kts | 267° |
| 2026-05-08 00:38 | 40.92236 | -74.57595 | 22857 ft | 349 kts | 267° |
| 2026-05-08 00:38 | 40.92251 | -74.60826 | 23361 ft | 352 kts | 266° |
| 2026-05-08 00:38 | 40.92261 | -74.64070 | 23862 ft | 354 kts | 266° |
| 2026-05-08 00:39 | 40.92267 | -74.67286 | 24365 ft | 355 kts | 266° |
| 2026-05-08 00:39 | 40.92271 | -74.70557 | 24887 ft | 356 kts | 266° |
| 2026-05-08 00:39 | 40.92273 | -74.73843 | 25352 ft | 358 kts | 266° |
| 2026-05-08 00:39 | 40.92296 | -74.77141 | 25825 ft | 359 kts | 267° |
| 2026-05-08 00:40 | 40.92310 | -74.80449 | 26267 ft | 361 kts | 266° |
| 2026-05-08 00:40 | 40.92312 | -74.83769 | 26703 ft | 362 kts | 266° |
| 2026-05-08 00:40 | 40.92307 | -74.87112 | 27108 ft | 364 kts | 266° |
| 2026-05-08 00:40 | 40.92300 | -74.90460 | 27523 ft | 364 kts | 266° |
| 2026-05-08 00:41 | 40.92290 | -74.93783 | 27912 ft | 366 kts | 266° |
| 2026-05-08 00:41 | 40.92278 | -74.97155 | 28304 ft | 367 kts | 266° |
| 2026-05-08 00:41 | 40.92266 | -75.00534 | 28681 ft | 368 kts | 266° |
| 2026-05-08 00:41 | 40.92252 | -75.03922 | 29020 ft | 369 kts | 266° |
| 2026-05-08 00:42 | 40.92239 | -75.07330 | 29359 ft | 371 kts | 266° |
| 2026-05-08 00:42 | 40.92225 | -75.10741 | 29708 ft | 371 kts | 267° |
| 2026-05-08 00:42 | 40.92128 | -75.14143 | 30072 ft | 370 kts | 262° |
| 2026-05-08 00:42 | 40.91745 | -75.17519 | 30355 ft | 371 kts | 258° |
| 2026-05-08 00:43 | 40.91231 | -75.20866 | 30672 ft | 371 kts | 256° |
| 2026-05-08 00:43 | 40.90563 | -75.24158 | 31054 ft | 371 kts | 253° |
| 2026-05-08 00:43 | 40.89788 | -75.27405 | 31453 ft | 369 kts | 253° |
| 2026-05-08 00:43 | 40.89011 | -75.30629 | 31802 ft | 369 kts | 253° |
| 2026-05-08 00:44 | 40.88239 | -75.33859 | 32124 ft | 369 kts | 253° |
| 2026-05-08 00:44 | 40.87468 | -75.37094 | 32458 ft | 368 kts | 253° |
| 2026-05-08 00:44 | 40.86702 | -75.40314 | 32785 ft | 368 kts | 253° |
| 2026-05-08 00:44 | 40.85950 | -75.43488 | 33191 ft | 365 kts | 253° |
| 2026-05-08 00:45 | 40.85188 | -75.46689 | 33484 ft | 366 kts | 254° |
| 2026-05-08 00:45 | 40.84423 | -75.49899 | 33768 ft | 366 kts | 254° |
| 2026-05-08 00:45 | 40.83661 | -75.53095 | 34128 ft | 364 kts | 254° |
| 2026-05-08 00:45 | 40.82896 | -75.56294 | 34412 ft | 364 kts | 254° |
| 2026-05-08 00:46 | 40.82128 | -75.59500 | 34624 ft | 366 kts | 254° |
| 2026-05-08 00:46 | 40.81361 | -75.62700 | 34929 ft | 365 kts | 254° |
| 2026-05-08 00:46 | 40.80595 | -75.65893 | 35177 ft | 366 kts | 254° |
| 2026-05-08 00:46 | 40.79824 | -75.69100 | 35407 ft | 367 kts | 253° |
| 2026-05-08 00:47 | 40.79064 | -75.72260 | 35696 ft | 366 kts | 253° |
| 2026-05-08 00:47 | 40.78292 | -75.75467 | 35848 ft | 368 kts | 253° |
| 2026-05-08 00:47 | 40.77513 | -75.78701 | 35867 ft | 369 kts | 253° |
| 2026-05-08 00:48 | 40.75983 | -75.85167 | 35873 ft | 368 kts | 254° |
| 2026-05-08 00:48 | 40.74488 | -75.91618 | 35880 ft | 367 kts | 253° |
| 2026-05-08 00:49 | 40.72948 | -75.98019 | 35880 ft | 368 kts | 253° |
| 2026-05-08 00:49 | 40.71383 | -76.04448 | 35876 ft | 367 kts | 254° |
| 2026-05-08 00:50 | 40.69816 | -76.10860 | 35872 ft | 367 kts | 254° |
| 2026-05-08 00:50 | 40.68246 | -76.17274 | 35869 ft | 367 kts | 253° |
| 2026-05-08 00:51 | 40.67222 | -76.23833 | 35870 ft | 368 kts | 269° |
| 2026-05-08 00:51 | 40.67774 | -76.30562 | 35869 ft | 371 kts | 276° |
| 2026-05-08 00:52 | 40.68661 | -76.37269 | 35870 ft | 372 kts | 276° |
| 2026-05-08 00:52 | 40.69599 | -76.43927 | 35869 ft | 372 kts | 276° |
| 2026-05-08 00:53 | 40.70564 | -76.50621 | 35867 ft | 372 kts | 276° |
| 2026-05-08 00:53 | 40.71537 | -76.57318 | 35866 ft | 372 kts | 276° |
| 2026-05-08 00:54 | 40.72512 | -76.64019 | 35867 ft | 372 kts | 276° |
| 2026-05-08 00:54 | 40.73509 | -76.70735 | 35864 ft | 372 kts | 277° |
| 2026-05-08 00:55 | 40.74518 | -76.77396 | 35860 ft | 372 kts | 276° |
| 2026-05-08 00:55 | 40.75508 | -76.84101 | 35860 ft | 372 kts | 276° |
| 2026-05-08 00:56 | 40.76487 | -76.90805 | 35860 ft | 372 kts | 276° |
| 2026-05-08 00:56 | 40.77459 | -76.97517 | 35860 ft | 372 kts | 276° |
| 2026-05-08 00:57 | 40.78450 | -77.04235 | 35860 ft | 372 kts | 277° |
| 2026-05-08 00:57 | 40.79431 | -77.10948 | 35862 ft | 372 kts | 276° |
| 2026-05-08 00:58 | 40.80384 | -77.17661 | 35864 ft | 372 kts | 276° |
| 2026-05-08 00:58 | 40.81322 | -77.24337 | 35866 ft | 372 kts | 276° |
| 2026-05-08 00:59 | 40.82260 | -77.31046 | 35866 ft | 372 kts | 276° |
| 2026-05-08 00:59 | 40.83199 | -77.37761 | 35868 ft | 372 kts | 276° |
| 2026-05-08 01:00 | 40.84136 | -77.44470 | 35869 ft | 371 kts | 276° |
| 2026-05-08 01:00 | 40.85074 | -77.51171 | 35872 ft | 371 kts | 276° |
| 2026-05-08 01:01 | 40.85985 | -77.57844 | 35869 ft | 371 kts | 276° |
| 2026-05-08 01:01 | 40.86897 | -77.64553 | 35871 ft | 371 kts | 276° |
| 2026-05-08 01:02 | 40.87814 | -77.71254 | 35877 ft | 371 kts | 276° |
| 2026-05-08 01:02 | 40.88743 | -77.77970 | 35879 ft | 371 kts | 276° |
| 2026-05-08 01:03 | 40.89647 | -77.84686 | 35880 ft | 371 kts | 276° |
| 2026-05-08 01:03 | 40.90539 | -77.91357 | 35880 ft | 371 kts | 276° |
| 2026-05-08 01:04 | 40.91439 | -77.98086 | 35881 ft | 372 kts | 276° |
| 2026-05-08 01:04 | 40.92330 | -78.04822 | 35882 ft | 371 kts | 276° |
| 2026-05-08 01:05 | 40.93180 | -78.11556 | 35885 ft | 371 kts | 276° |
| 2026-05-08 01:05 | 40.94012 | -78.18297 | 35887 ft | 371 kts | 275° |
| 2026-05-08 01:06 | 40.94836 | -78.25036 | 35888 ft | 371 kts | 275° |
| 2026-05-08 01:06 | 40.95657 | -78.31774 | 35889 ft | 371 kts | 276° |
| 2026-05-08 01:07 | 40.96478 | -78.38511 | 35890 ft | 371 kts | 276° |
| 2026-05-08 01:07 | 40.97298 | -78.45276 | 35891 ft | 372 kts | 275° |
| 2026-05-08 01:08 | 40.98103 | -78.52049 | 35892 ft | 372 kts | 275° |
| 2026-05-08 01:08 | 40.98895 | -78.58776 | 35894 ft | 372 kts | 275° |
| 2026-05-08 01:09 | 40.99685 | -78.65541 | 35897 ft | 372 kts | 275° |
| 2026-05-08 01:09 | 41.00472 | -78.72319 | 35899 ft | 372 kts | 275° |
| 2026-05-08 01:10 | 41.01254 | -78.79091 | 35901 ft | 372 kts | 275° |
| 2026-05-08 01:10 | 41.02035 | -78.85884 | 35902 ft | 372 kts | 275° |
| 2026-05-08 01:11 | 41.02850 | -78.92626 | 35922 ft | 373 kts | 276° |
| 2026-05-08 01:11 | 41.03664 | -78.99417 | 35936 ft | 373 kts | 276° |
| 2026-05-08 01:12 | 41.04458 | -79.06209 | 35942 ft | 373 kts | 276° |
| 2026-05-08 01:12 | 41.05242 | -79.13001 | 35944 ft | 373 kts | 275° |
| 2026-05-08 01:13 | 41.06021 | -79.19817 | 35947 ft | 374 kts | 275° |
| 2026-05-08 01:13 | 41.06795 | -79.26635 | 35951 ft | 374 kts | 275° |
| 2026-05-08 01:14 | 41.07564 | -79.33453 | 35954 ft | 374 kts | 275° |
| 2026-05-08 01:14 | 41.08325 | -79.40230 | 35957 ft | 374 kts | 275° |
| 2026-05-08 01:15 | 41.09087 | -79.47065 | 35960 ft | 375 kts | 275° |
| 2026-05-08 01:15 | 41.09847 | -79.53913 | 35962 ft | 375 kts | 275° |
| 2026-05-08 01:16 | 41.10601 | -79.60754 | 35965 ft | 375 kts | 275° |
| 2026-05-08 01:16 | 41.11353 | -79.67603 | 35966 ft | 375 kts | 275° |
| 2026-05-08 01:17 | 41.12112 | -79.74451 | 35968 ft | 375 kts | 276° |
| 2026-05-08 01:17 | 41.12882 | -79.81299 | 35969 ft | 376 kts | 275° |
| 2026-05-08 01:18 | 41.13620 | -79.88162 | 35970 ft | 376 kts | 275° |
| 2026-05-08 01:18 | 41.14341 | -79.94998 | 35971 ft | 376 kts | 275° |
| 2026-05-08 01:19 | 41.15063 | -80.01870 | 35976 ft | 376 kts | 275° |
| 2026-05-08 01:19 | 41.15782 | -80.08739 | 35977 ft | 377 kts | 275° |
| 2026-05-08 01:20 | 41.16503 | -80.15626 | 35979 ft | 377 kts | 275° |
| 2026-05-08 01:20 | 41.17238 | -80.22505 | 35981 ft | 376 kts | 275° |
| 2026-05-08 01:21 | 41.17946 | -80.29355 | 35984 ft | 376 kts | 275° |
| 2026-05-08 01:21 | 41.18652 | -80.36246 | 35985 ft | 376 kts | 275° |
| 2026-05-08 01:22 | 41.19356 | -80.43124 | 35985 ft | 376 kts | 275° |
| 2026-05-08 01:22 | 41.19941 | -80.48852 | 35983 ft | 376 kts | 275° |
| 2026-05-08 01:23 | 41.20635 | -80.55745 | 35982 ft | 376 kts | 275° |
| 2026-05-08 01:23 | 41.21324 | -80.62643 | 35981 ft | 376 kts | 275° |
| 2026-05-08 01:24 | 41.22003 | -80.69486 | 35982 ft | 376 kts | 275° |
| 2026-05-08 01:24 | 41.22683 | -80.76372 | 35981 ft | 376 kts | 275° |
| 2026-05-08 01:25 | 41.23358 | -80.83252 | 35981 ft | 376 kts | 275° |
| 2026-05-08 01:25 | 41.24061 | -80.90143 | 35983 ft | 376 kts | 276° |
| 2026-05-08 01:26 | 41.24771 | -80.97032 | 35984 ft | 376 kts | 275° |
| 2026-05-08 01:26 | 41.25457 | -81.03917 | 35984 ft | 376 kts | 275° |
| 2026-05-08 01:27 | 41.26131 | -81.10802 | 35986 ft | 375 kts | 275° |
| 2026-05-08 01:27 | 41.26815 | -81.17639 | 35988 ft | 376 kts | 276° |
| 2026-05-08 01:28 | 41.27499 | -81.24528 | 35989 ft | 375 kts | 275° |
| 2026-05-08 01:28 | 41.28153 | -81.31432 | 35988 ft | 375 kts | 275° |
| 2026-05-08 01:29 | 41.28796 | -81.38321 | 35986 ft | 376 kts | 275° |
| 2026-05-08 01:29 | 41.29437 | -81.45228 | 35983 ft | 376 kts | 275° |
| 2026-05-08 01:30 | 41.30072 | -81.52088 | 35980 ft | 376 kts | 275° |
| 2026-05-08 01:30 | 41.30712 | -81.59019 | 35976 ft | 377 kts | 275° |
| 2026-05-08 01:31 | 41.31337 | -81.65946 | 35975 ft | 377 kts | 275° |
| 2026-05-08 01:31 | 41.31957 | -81.72881 | 35967 ft | 378 kts | 275° |
| 2026-05-08 01:32 | 41.32628 | -81.79829 | 35964 ft | 378 kts | 275° |
| 2026-05-08 01:32 | 41.33255 | -81.86780 | 35964 ft | 378 kts | 275° |
| 2026-05-08 01:33 | 41.33865 | -81.93751 | 35965 ft | 379 kts | 275° |
| 2026-05-08 01:33 | 41.34468 | -82.00723 | 35970 ft | 379 kts | 275° |
| 2026-05-08 01:34 | 41.35065 | -82.07663 | 35976 ft | 379 kts | 275° |
| 2026-05-08 01:34 | 41.35666 | -82.14632 | 35979 ft | 379 kts | 275° |
| 2026-05-08 01:35 | 41.36167 | -82.21606 | 35980 ft | 379 kts | 273° |
| 2026-05-08 01:35 | 41.36545 | -82.28594 | 35979 ft | 378 kts | 273° |
| 2026-05-08 01:36 | 41.36926 | -82.35557 | 35978 ft | 378 kts | 273° |
| 2026-05-08 01:36 | 41.37308 | -82.42537 | 35976 ft | 378 kts | 273° |
| 2026-05-08 01:37 | 41.37689 | -82.49524 | 35973 ft | 378 kts | 273° |
| 2026-05-08 01:37 | 41.38067 | -82.56502 | 35971 ft | 378 kts | 273° |
| 2026-05-08 01:38 | 41.38457 | -82.63485 | 35968 ft | 378 kts | 274° |
| 2026-05-08 01:38 | 41.38886 | -82.70469 | 35966 ft | 378 kts | 274° |
| 2026-05-08 01:39 | 41.39286 | -82.77411 | 35964 ft | 378 kts | 273° |
| 2026-05-08 01:39 | 41.39674 | -82.84395 | 35962 ft | 378 kts | 273° |
| 2026-05-08 01:40 | 41.40053 | -82.91369 | 35963 ft | 378 kts | 273° |
| 2026-05-08 01:40 | 41.40426 | -82.98358 | 35964 ft | 378 kts | 273° |
| 2026-05-08 01:41 | 41.40793 | -83.05346 | 35966 ft | 378 kts | 273° |
| 2026-05-08 01:41 | 41.41157 | -83.12341 | 35970 ft | 379 kts | 273° |
| 2026-05-08 01:42 | 41.41516 | -83.19348 | 35974 ft | 379 kts | 274° |
| 2026-05-08 01:42 | 41.41869 | -83.26323 | 35977 ft | 380 kts | 273° |
| 2026-05-08 01:43 | 41.42220 | -83.33348 | 35979 ft | 380 kts | 273° |
| 2026-05-08 01:43 | 41.42568 | -83.40385 | 35980 ft | 381 kts | 273° |
| 2026-05-08 01:44 | 41.42912 | -83.47439 | 35982 ft | 382 kts | 273° |
| 2026-05-08 01:44 | 41.43253 | -83.54514 | 35980 ft | 382 kts | 274° |
| 2026-05-08 01:45 | 41.43590 | -83.61594 | 35979 ft | 383 kts | 273° |
| 2026-05-08 01:45 | 41.43922 | -83.68679 | 35979 ft | 384 kts | 273° |
| 2026-05-08 01:46 | 41.44252 | -83.75798 | 35979 ft | 385 kts | 273° |
| 2026-05-08 01:46 | 41.44577 | -83.82911 | 35976 ft | 385 kts | 274° |
| 2026-05-08 01:47 | 41.44897 | -83.89999 | 35976 ft | 385 kts | 274° |
| 2026-05-08 01:47 | 41.45056 | -83.93567 | 35799 ft | 387 kts | 273° |
| 2026-05-08 01:47 | 41.45214 | -83.97143 | 35549 ft | 386 kts | 273° |
| 2026-05-08 01:48 | 41.45527 | -84.04272 | 35049 ft | 385 kts | 274° |
| 2026-05-08 01:48 | 41.45682 | -84.07843 | 34798 ft | 385 kts | 274° |
| 2026-05-08 01:48 | 41.45835 | -84.11402 | 34549 ft | 385 kts | 274° |
| 2026-05-08 01:48 | 41.45987 | -84.14974 | 34299 ft | 385 kts | 274° |
| 2026-05-08 01:49 | 41.46139 | -84.18528 | 34048 ft | 383 kts | 274° |
| 2026-05-08 01:49 | 41.46292 | -84.22071 | 33799 ft | 383 kts | 274° |
| 2026-05-08 01:49 | 41.46466 | -84.25625 | 33548 ft | 383 kts | 274° |
| 2026-05-08 01:49 | 41.46624 | -84.29179 | 33298 ft | 384 kts | 274° |
| 2026-05-08 01:50 | 41.46771 | -84.32695 | 33051 ft | 384 kts | 274° |
| 2026-05-08 01:50 | 41.46913 | -84.36258 | 32800 ft | 384 kts | 274° |
| 2026-05-08 01:50 | 41.47053 | -84.39810 | 32550 ft | 383 kts | 274° |
| 2026-05-08 01:50 | 41.47189 | -84.43354 | 32299 ft | 383 kts | 274° |
| 2026-05-08 01:51 | 41.47325 | -84.46908 | 32049 ft | 384 kts | 274° |
| 2026-05-08 01:51 | 41.47461 | -84.50475 | 31798 ft | 384 kts | 274° |
| 2026-05-08 01:51 | 41.47595 | -84.54028 | 31549 ft | 383 kts | 274° |
| 2026-05-08 01:51 | 41.47730 | -84.57578 | 31298 ft | 384 kts | 274° |
| 2026-05-08 01:52 | 41.47865 | -84.61136 | 31048 ft | 384 kts | 274° |
| 2026-05-08 01:52 | 41.48000 | -84.64696 | 30798 ft | 384 kts | 274° |
| 2026-05-08 01:52 | 41.48143 | -84.68252 | 30547 ft | 384 kts | 274° |
| 2026-05-08 01:52 | 41.48285 | -84.71802 | 30298 ft | 384 kts | 274° |
| 2026-05-08 01:53 | 41.48426 | -84.75368 | 30048 ft | 384 kts | 274° |
| 2026-05-08 01:53 | 41.48564 | -84.78925 | 29977 ft | 384 kts | 274° |
| 2026-05-08 01:53 | 41.48837 | -84.86041 | 29966 ft | 385 kts | 274° |
| 2026-05-08 01:54 | 41.49105 | -84.93122 | 29963 ft | 384 kts | 274° |
| 2026-05-08 01:54 | 41.49371 | -85.00247 | 29963 ft | 382 kts | 274° |
| 2026-05-08 01:55 | 41.49633 | -85.07277 | 29963 ft | 378 kts | 274° |
| 2026-05-08 01:55 | 41.49969 | -85.14281 | 29778 ft | 378 kts | 274° |
| 2026-05-08 01:56 | 41.50110 | -85.17746 | 29434 ft | 368 kts | 274° |
| 2026-05-08 01:56 | 41.50236 | -85.21133 | 28862 ft | 363 kts | 274° |
| 2026-05-08 01:56 | 41.50356 | -85.24483 | 28294 ft | 360 kts | 274° |
| 2026-05-08 01:56 | 41.50472 | -85.27800 | 27737 ft | 357 kts | 274° |
| 2026-05-08 01:57 | 41.50585 | -85.31104 | 27185 ft | 354 kts | 274° |
| 2026-05-08 01:57 | 41.50696 | -85.34372 | 26639 ft | 351 kts | 274° |
| 2026-05-08 01:57 | 41.50805 | -85.37614 | 26097 ft | 348 kts | 274° |
| 2026-05-08 01:57 | 41.50914 | -85.40835 | 25558 ft | 346 kts | 275° |
| 2026-05-08 01:58 | 41.51021 | -85.44026 | 25021 ft | 344 kts | 275° |
| 2026-05-08 01:58 | 41.51129 | -85.47199 | 24487 ft | 341 kts | 275° |
| 2026-05-08 01:58 | 41.51234 | -85.50349 | 24223 ft | 339 kts | 275° |
| 2026-05-08 01:58 | 41.51341 | -85.53486 | 23685 ft | 345 kts | 275° |
| 2026-05-08 01:59 | 41.51448 | -85.56746 | 23038 ft | 349 kts | 275° |
| 2026-05-08 01:59 | 41.51552 | -85.59955 | 22565 ft | 352 kts | 275° |
| 2026-05-08 01:59 | 41.51650 | -85.63226 | 22087 ft | 353 kts | 274° |
| 2026-05-08 01:59 | 41.51739 | -85.66488 | 21611 ft | 351 kts | 274° |
| 2026-05-08 02:00 | 41.51817 | -85.69738 | 21138 ft | 349 kts | 274° |
| 2026-05-08 02:00 | 41.51887 | -85.72965 | 20669 ft | 347 kts | 274° |
| 2026-05-08 02:00 | 41.51951 | -85.76182 | 20200 ft | 346 kts | 273° |
| 2026-05-08 02:00 | 41.52011 | -85.79373 | 19736 ft | 344 kts | 273° |
| 2026-05-08 02:01 | 41.52070 | -85.82569 | 19270 ft | 343 kts | 273° |
| 2026-05-08 02:01 | 41.52127 | -85.85746 | 18807 ft | 341 kts | 273° |
| 2026-05-08 02:01 | 41.52183 | -85.88898 | 18348 ft | 339 kts | 273° |
| 2026-05-08 02:01 | 41.52237 | -85.92040 | 17889 ft | 337 kts | 273° |
| 2026-05-08 02:02 | 41.52291 | -85.95161 | 17434 ft | 336 kts | 273° |
| 2026-05-08 02:02 | 41.52345 | -85.98267 | 16992 ft | 334 kts | 272° |
| 2026-05-08 02:02 | 41.52399 | -86.01353 | 16547 ft | 333 kts | 272° |
| 2026-05-08 02:02 | 41.52453 | -86.04442 | 16096 ft | 331 kts | 272° |
| 2026-05-08 02:03 | 41.52505 | -86.07467 | 15653 ft | 329 kts | 272° |
| 2026-05-08 02:03 | 41.52528 | -86.10511 | 15210 ft | 328 kts | 271° |
| 2026-05-08 02:03 | 41.52514 | -86.13548 | 14767 ft | 326 kts | 271° |
| 2026-05-08 02:03 | 41.52495 | -86.16561 | 14328 ft | 324 kts | 271° |
| 2026-05-08 02:04 | 41.52475 | -86.19559 | 13891 ft | 322 kts | 271° |
| 2026-05-08 02:04 | 41.52455 | -86.22546 | 13455 ft | 320 kts | 270° |
| 2026-05-08 02:04 | 41.52435 | -86.25515 | 13029 ft | 318 kts | 270° |
| 2026-05-08 02:04 | 41.52416 | -86.28457 | 12604 ft | 317 kts | 270° |
| 2026-05-08 02:05 | 41.52396 | -86.31401 | 12178 ft | 315 kts | 270° |
| 2026-05-08 02:05 | 41.52376 | -86.34324 | 11752 ft | 314 kts | 270° |
| 2026-05-08 02:05 | 41.52357 | -86.37230 | 11327 ft | 314 kts | 270° |
| 2026-05-08 02:05 | 41.52338 | -86.40122 | 11056 ft | 309 kts | 270° |
| 2026-05-08 02:06 | 41.52325 | -86.42965 | 10817 ft | 303 kts | 270° |
| 2026-05-08 02:06 | 41.52307 | -86.45730 | 10650 ft | 291 kts | 270° |
| 2026-05-08 02:06 | 41.52288 | -86.48289 | 10492 ft | 267 kts | 270° |
| 2026-05-08 02:06 | 41.52269 | -86.50697 | 10361 ft | 256 kts | 270° |
| 2026-05-08 02:07 | 41.52250 | -86.53045 | 10229 ft | 250 kts | 270° |
| 2026-05-08 02:07 | 41.52231 | -86.55351 | 10102 ft | 248 kts | 270° |
| 2026-05-08 02:07 | 41.52213 | -86.57642 | 9988 ft | 246 kts | 270° |
| 2026-05-08 02:07 | 41.52206 | -86.59936 | 9822 ft | 247 kts | 270° |
| 2026-05-08 02:08 | 41.52196 | -86.62231 | 9660 ft | 247 kts | 270° |
| 2026-05-08 02:08 | 41.52186 | -86.63748 | 9554 ft | 248 kts | 270° |
| 2026-05-08 02:08 | 41.52168 | -86.66056 | 9392 ft | 249 kts | 270° |
| 2026-05-08 02:08 | 41.52147 | -86.68364 | 9232 ft | 248 kts | 270° |
| 2026-05-08 02:09 | 41.52125 | -86.70656 | 9073 ft | 246 kts | 270° |
| 2026-05-08 02:09 | 41.52101 | -86.72940 | 8918 ft | 246 kts | 270° |
| 2026-05-08 02:09 | 41.52077 | -86.75228 | 8761 ft | 245 kts | 270° |
| 2026-05-08 02:09 | 41.52052 | -86.77509 | 8610 ft | 246 kts | 270° |
| 2026-05-08 02:10 | 41.52027 | -86.79792 | 8458 ft | 245 kts | 270° |
| 2026-05-08 02:10 | 41.52002 | -86.82034 | 8308 ft | 245 kts | 270° |
| 2026-05-08 02:10 | 41.51977 | -86.84313 | 8154 ft | 245 kts | 270° |
| 2026-05-08 02:10 | 41.51953 | -86.86578 | 8001 ft | 244 kts | 270° |
| 2026-05-08 02:11 | 41.51928 | -86.88840 | 7852 ft | 244 kts | 270° |
| 2026-05-08 02:11 | 41.51904 | -86.91102 | 7694 ft | 244 kts | 270° |
| 2026-05-08 02:11 | 41.51888 | -86.93361 | 7538 ft | 243 kts | 270° |
| 2026-05-08 02:11 | 41.51867 | -86.95614 | 7384 ft | 243 kts | 270° |
| 2026-05-08 02:12 | 41.51842 | -86.97872 | 7231 ft | 243 kts | 270° |
| 2026-05-08 02:12 | 41.51815 | -87.00125 | 7078 ft | 242 kts | 270° |
| 2026-05-08 02:12 | 41.51786 | -87.02378 | 6924 ft | 243 kts | 270° |
| 2026-05-08 02:12 | 41.51757 | -87.04625 | 6771 ft | 242 kts | 270° |
| 2026-05-08 02:13 | 41.51727 | -87.06867 | 6618 ft | 241 kts | 270° |
| 2026-05-08 02:13 | 41.51697 | -87.09106 | 6465 ft | 242 kts | 270° |
| 2026-05-08 02:13 | 41.51667 | -87.11352 | 6310 ft | 242 kts | 270° |
| 2026-05-08 02:13 | 41.51638 | -87.13564 | 6158 ft | 240 kts | 270° |
| 2026-05-08 02:14 | 41.51609 | -87.15795 | 6023 ft | 240 kts | 270° |
| 2026-05-08 02:14 | 41.51656 | -87.18024 | 5956 ft | 240 kts | 274° |
| 2026-05-08 02:14 | 41.51789 | -87.20243 | 5893 ft | 240 kts | 276° |
| 2026-05-08 02:14 | 41.51949 | -87.22457 | 5832 ft | 239 kts | 276° |
| 2026-05-08 02:15 | 41.52097 | -87.24661 | 5773 ft | 239 kts | 275° |
| 2026-05-08 02:15 | 41.52235 | -87.26886 | 5718 ft | 245 kts | 275° |
| 2026-05-08 02:15 | 41.52369 | -87.29159 | 5660 ft | 244 kts | 275° |
| 2026-05-08 02:15 | 41.52497 | -87.31410 | 5604 ft | 242 kts | 275° |
| 2026-05-08 02:16 | 41.52619 | -87.33650 | 5547 ft | 242 kts | 275° |
| 2026-05-08 02:16 | 41.52739 | -87.35888 | 5488 ft | 240 kts | 275° |
| 2026-05-08 02:16 | 41.52858 | -87.38112 | 5431 ft | 240 kts | 275° |
| 2026-05-08 02:16 | 41.52973 | -87.40302 | 5378 ft | 239 kts | 275° |
| 2026-05-08 02:17 | 41.53089 | -87.42510 | 5326 ft | 238 kts | 275° |
| 2026-05-08 02:17 | 41.53204 | -87.44723 | 5275 ft | 240 kts | 275° |
| 2026-05-08 02:17 | 41.53319 | -87.46961 | 5224 ft | 242 kts | 275° |
| 2026-05-08 02:17 | 41.53437 | -87.49213 | 5171 ft | 242 kts | 275° |
| 2026-05-08 02:18 | 41.53553 | -87.51448 | 5117 ft | 241 kts | 275° |
| 2026-05-08 02:18 | 41.53668 | -87.53681 | 5060 ft | 241 kts | 275° |
| 2026-05-08 02:18 | 41.53784 | -87.55913 | 5005 ft | 241 kts | 275° |
| 2026-05-08 02:18 | 41.53901 | -87.58143 | 4953 ft | 241 kts | 275° |
| 2026-05-08 02:19 | 41.54013 | -87.60342 | 4892 ft | 240 kts | 275° |
| 2026-05-08 02:19 | 41.54089 | -87.62563 | 4837 ft | 239 kts | 274° |
| 2026-05-08 02:19 | 41.54157 | -87.64785 | 4778 ft | 240 kts | 274° |
| 2026-05-08 02:19 | 41.54222 | -87.67013 | 4704 ft | 240 kts | 274° |
| 2026-05-08 02:20 | 41.54289 | -87.69252 | 4629 ft | 241 kts | 274° |
| 2026-05-08 02:20 | 41.54358 | -87.71497 | 4555 ft | 242 kts | 274° |
| 2026-05-08 02:20 | 41.54428 | -87.73742 | 4478 ft | 241 kts | 274° |
| 2026-05-08 02:20 | 41.54491 | -87.75972 | 4404 ft | 240 kts | 274° |
| 2026-05-08 02:21 | 41.54556 | -87.78205 | 4331 ft | 241 kts | 274° |
| 2026-05-08 02:21 | 41.54614 | -87.80430 | 4254 ft | 238 kts | 274° |
| 2026-05-08 02:21 | 41.54669 | -87.82600 | 4176 ft | 234 kts | 274° |
| 2026-05-08 02:21 | 41.54724 | -87.84764 | 4101 ft | 232 kts | 274° |
| 2026-05-08 02:22 | 41.54777 | -87.86914 | 4029 ft | 231 kts | 274° |
| 2026-05-08 02:22 | 41.54914 | -87.89034 | 3982 ft | 228 kts | 286° |
| 2026-05-08 02:22 | 41.55595 | -87.90917 | 3995 ft | 224 kts | 303° |
| 2026-05-08 02:22 | 41.56486 | -87.92610 | 3999 ft | 220 kts | 306° |
| 2026-05-08 02:23 | 41.57406 | -87.94237 | 3991 ft | 218 kts | 312° |
| 2026-05-08 02:23 | 41.58672 | -87.95233 | 3950 ft | 214 kts | 348° |
| 2026-05-08 02:23 | 41.60130 | -87.95049 | 4004 ft | 214 kts | 11° |
| 2026-05-08 02:23 | 41.61499 | -87.94265 | 4045 ft | 214 kts | 20° |
| 2026-05-08 02:24 | 41.62857 | -87.93438 | 4048 ft | 214 kts | 20° |
| 2026-05-08 02:24 | 41.64204 | -87.92616 | 4041 ft | 211 kts | 20° |
| 2026-05-08 02:24 | 41.65466 | -87.91649 | 4008 ft | 209 kts | 32° |
| 2026-05-08 02:24 | 41.66551 | -87.90375 | 3980 ft | 207 kts | 39° |
| 2026-05-08 02:25 | 41.67575 | -87.89037 | 3761 ft | 204 kts | 39° |
| 2026-05-08 02:25 | 41.68586 | -87.87741 | 3472 ft | 199 kts | 39° |
| 2026-05-08 02:25 | 41.69577 | -87.86482 | 3173 ft | 195 kts | 39° |
| 2026-05-08 02:25 | 41.70548 | -87.85253 | 2881 ft | 192 kts | 39° |
| 2026-05-08 02:26 | 41.71493 | -87.84058 | 2591 ft | 181 kts | 39° |
| 2026-05-08 02:26 | 41.72378 | -87.82940 | 2336 ft | 169 kts | 39° |
| 2026-05-08 02:26 | 41.73210 | -87.81888 | 2080 ft | 161 kts | 40° |
| 2026-05-08 02:26 | 41.73994 | -87.80896 | 1864 ft | 150 kts | 40° |
| 2026-05-08 02:27 | 41.74740 | -87.79953 | 1625 ft | 145 kts | 41° |
| 2026-05-08 02:27 | 41.75464 | -87.79036 | 1406 ft | 142 kts | 42° |
| 2026-05-08 02:27 | 41.76182 | -87.78128 | 1201 ft | 142 kts | 43° |
| 2026-05-08 02:27 | 41.76900 | -87.77219 | 992 ft | 141 kts | 44° |
| 2026-05-08 02:28 | 41.77608 | -87.76321 | 779 ft | 139 kts | 45° |
| 2026-05-08 02:28 | 41.78276 | -87.75473 | 630 ft | 121 kts | 42° |
| 2026-05-08 02:28 | 41.78773 | -87.74844 | 628 ft | 65 kts | 43° |
| 2026-05-08 02:28 | 41.78988 | -87.74573 | 628 ft | 26 kts | 48° |
| 2026-05-08 02:29 | 41.78988 | -87.74425 | 628 ft | 11 kts | 156° |
| 2026-05-08 02:29 | 41.78964 | -87.74437 | 628 ft | 1 kts | 228° |
| 2026-05-08 02:29 | 41.78959 | -87.74444 | 628 ft | 1 kts | 229° |
| 2026-05-08 02:29 | 41.78951 | -87.74457 | 628 ft | 7 kts | 229° |
| 2026-05-08 02:30 | 41.78879 | -87.74568 | 628 ft | 19 kts | 226° |
| 2026-05-08 02:30 | 41.78787 | -87.74692 | 628 ft | 18 kts | 220° |